sensor_id;sensor_type;location;lat;lon;timestamp;P1;durP1;ratioP1;P2;durP2;ratioP2
4323;SDS011;2175;51.018;6.994;2023-04-12T00:00:35;12.20;;;3.37;;
4323;SDS011;2175;51.018;6.994;2023-04-12T00:03:03;11.80;;;3.50;;
4323;SDS011;2175;51.018;6.994;2023-04-12T00:05:31;13.60;;;3.00;;
4323;SDS011;2175;51.018;6.994;2023-04-12T00:07:58;8.33;;;2.93;;
4323;SDS011;2175;51.018;6.994;2023-04-12T00:10:26;10.97;;;2.77;;
4323;SDS011;2175;51.018;6.994;2023-04-12T00:12:52;10.63;;;3.40;;
4323;SDS011;2175;51.018;6.994;2023-04-12T00:15:17;6.07;;;3.33;;
4323;SDS011;2175;51.018;6.994;2023-04-12T00:17:43;15.47;;;3.17;;
4323;SDS011;2175;51.018;6.994;2023-04-12T00:20:09;7.13;;;2.90;;
4323;SDS011;2175;51.018;6.994;2023-04-12T00:22:41;7.90;;;2.70;;
4323;SDS011;2175;51.018;6.994;2023-04-12T00:25:07;12.20;;;2.70;;
4323;SDS011;2175;51.018;6.994;2023-04-12T00:27:33;11.07;;;3.43;;
4323;SDS011;2175;51.018;6.994;2023-04-12T00:29:59;8.63;;;2.77;;
4323;SDS011;2175;51.018;6.994;2023-04-12T00:32:26;6.90;;;2.90;;
4323;SDS011;2175;51.018;6.994;2023-04-12T00:34:51;8.87;;;3.13;;
4323;SDS011;2175;51.018;6.994;2023-04-12T00:37:17;10.90;;;2.90;;
4323;SDS011;2175;51.018;6.994;2023-04-12T00:39:43;14.50;;;3.60;;
4323;SDS011;2175;51.018;6.994;2023-04-12T00:42:08;11.23;;;3.27;;
4323;SDS011;2175;51.018;6.994;2023-04-12T00:44:34;16.00;;;3.83;;
4323;SDS011;2175;51.018;6.994;2023-04-12T00:47:00;13.27;;;3.90;;
4323;SDS011;2175;51.018;6.994;2023-04-12T00:49:28;11.63;;;3.00;;
4323;SDS011;2175;51.018;6.994;2023-04-12T00:52:02;11.53;;;3.17;;
4323;SDS011;2175;51.018;6.994;2023-04-12T00:54:30;12.33;;;3.13;;
4323;SDS011;2175;51.018;6.994;2023-04-12T00:56:58;11.60;;;2.93;;
4323;SDS011;2175;51.018;6.994;2023-04-12T00:59:25;13.23;;;3.40;;
4323;SDS011;2175;51.018;6.994;2023-04-12T01:01:50;13.67;;;3.37;;
4323;SDS011;2175;51.018;6.994;2023-04-12T01:04:16;10.00;;;2.60;;
4323;SDS011;2175;51.018;6.994;2023-04-12T01:12:27;14.20;;;3.17;;
4323;SDS011;2175;51.018;6.994;2023-04-12T01:15:11;9.63;;;3.60;;
4323;SDS011;2175;51.018;6.994;2023-04-12T01:20:52;11.33;;;2.80;;
4323;SDS011;2175;51.018;6.994;2023-04-12T01:26:30;9.80;;;3.07;;
4323;SDS011;2175;51.018;6.994;2023-04-12T01:29:09;6.60;;;2.73;;
4323;SDS011;2175;51.018;6.994;2023-04-12T01:31:38;13.93;;;3.67;;
4323;SDS011;2175;51.018;6.994;2023-04-12T01:34:13;14.70;;;3.80;;
4323;SDS011;2175;51.018;6.994;2023-04-12T01:36:40;11.60;;;3.00;;
4323;SDS011;2175;51.018;6.994;2023-04-12T01:39:09;7.17;;;2.97;;
4323;SDS011;2175;51.018;6.994;2023-04-12T01:41:39;9.70;;;3.10;;
4323;SDS011;2175;51.018;6.994;2023-04-12T01:44:07;10.67;;;3.33;;
4323;SDS011;2175;51.018;6.994;2023-04-12T01:46:32;10.73;;;3.17;;
4323;SDS011;2175;51.018;6.994;2023-04-12T01:49:01;5.80;;;2.57;;
4323;SDS011;2175;51.018;6.994;2023-04-12T01:54:12;8.27;;;2.50;;
4323;SDS011;2175;51.018;6.994;2023-04-12T01:56:45;13.43;;;2.73;;
4323;SDS011;2175;51.018;6.994;2023-04-12T01:59:14;7.43;;;2.70;;
4323;SDS011;2175;51.018;6.994;2023-04-12T02:01:41;5.40;;;2.57;;
4323;SDS011;2175;51.018;6.994;2023-04-12T02:04:08;5.03;;;2.93;;
4323;SDS011;2175;51.018;6.994;2023-04-12T02:06:34;7.13;;;2.80;;
4323;SDS011;2175;51.018;6.994;2023-04-12T02:09:02;5.73;;;2.30;;
4323;SDS011;2175;51.018;6.994;2023-04-12T02:11:31;10.20;;;2.80;;
4323;SDS011;2175;51.018;6.994;2023-04-12T02:13:57;12.53;;;3.50;;
4323;SDS011;2175;51.018;6.994;2023-04-12T02:16:23;14.53;;;3.63;;
4323;SDS011;2175;51.018;6.994;2023-04-12T02:18:49;7.80;;;2.23;;
4323;SDS011;2175;51.018;6.994;2023-04-12T02:21:15;7.10;;;2.80;;
4323;SDS011;2175;51.018;6.994;2023-04-12T02:23:41;14.57;;;3.40;;
4323;SDS011;2175;51.018;6.994;2023-04-12T02:26:08;8.10;;;2.60;;
4323;SDS011;2175;51.018;6.994;2023-04-12T02:28:35;8.37;;;2.90;;
4323;SDS011;2175;51.018;6.994;2023-04-12T02:31:02;15.17;;;3.67;;
4323;SDS011;2175;51.018;6.994;2023-04-12T02:33:28;11.43;;;2.90;;
4323;SDS011;2175;51.018;6.994;2023-04-12T02:35:54;10.47;;;3.00;;
4323;SDS011;2175;51.018;6.994;2023-04-12T02:38:21;9.47;;;3.33;;
4323;SDS011;2175;51.018;6.994;2023-04-12T02:40:47;7.37;;;2.90;;
4323;SDS011;2175;51.018;6.994;2023-04-12T02:43:13;14.50;;;3.13;;
4323;SDS011;2175;51.018;6.994;2023-04-12T02:45:38;10.07;;;2.70;;
4323;SDS011;2175;51.018;6.994;2023-04-12T02:48:04;8.00;;;2.97;;
4323;SDS011;2175;51.018;6.994;2023-04-12T02:50:30;9.83;;;2.93;;
4323;SDS011;2175;51.018;6.994;2023-04-12T02:52:55;7.03;;;2.70;;
4323;SDS011;2175;51.018;6.994;2023-04-12T02:55:21;9.40;;;2.23;;
4323;SDS011;2175;51.018;6.994;2023-04-12T02:57:47;9.50;;;3.07;;
4323;SDS011;2175;51.018;6.994;2023-04-12T03:00:13;6.30;;;2.50;;
4323;SDS011;2175;51.018;6.994;2023-04-12T03:02:42;10.57;;;3.17;;
4323;SDS011;2175;51.018;6.994;2023-04-12T03:05:08;10.90;;;2.70;;
4323;SDS011;2175;51.018;6.994;2023-04-12T03:07:34;12.07;;;2.97;;
4323;SDS011;2175;51.018;6.994;2023-04-12T03:10:00;10.50;;;3.07;;
4323;SDS011;2175;51.018;6.994;2023-04-12T03:12:26;6.33;;;2.93;;
4323;SDS011;2175;51.018;6.994;2023-04-12T03:14:52;7.73;;;2.80;;
4323;SDS011;2175;51.018;6.994;2023-04-12T03:17:18;6.07;;;2.40;;
4323;SDS011;2175;51.018;6.994;2023-04-12T03:19:44;11.73;;;2.50;;
4323;SDS011;2175;51.018;6.994;2023-04-12T03:22:10;8.90;;;2.87;;
4323;SDS011;2175;51.018;6.994;2023-04-12T03:24:36;15.13;;;3.10;;
4323;SDS011;2175;51.018;6.994;2023-04-12T03:27:02;8.00;;;2.97;;
4323;SDS011;2175;51.018;6.994;2023-04-12T03:29:29;11.30;;;2.40;;
4323;SDS011;2175;51.018;6.994;2023-04-12T03:31:55;10.13;;;2.83;;
4323;SDS011;2175;51.018;6.994;2023-04-12T03:34:24;8.07;;;2.63;;
4323;SDS011;2175;51.018;6.994;2023-04-12T03:36:57;5.07;;;2.90;;
4323;SDS011;2175;51.018;6.994;2023-04-12T03:39:24;10.63;;;2.63;;
4323;SDS011;2175;51.018;6.994;2023-04-12T03:41:50;11.67;;;2.83;;
4323;SDS011;2175;51.018;6.994;2023-04-12T03:44:17;6.13;;;2.53;;
4323;SDS011;2175;51.018;6.994;2023-04-12T03:46:42;12.30;;;2.70;;
4323;SDS011;2175;51.018;6.994;2023-04-12T03:49:08;7.17;;;2.83;;
4323;SDS011;2175;51.018;6.994;2023-04-12T03:51:34;7.17;;;2.87;;
4323;SDS011;2175;51.018;6.994;2023-04-12T03:54:00;6.73;;;2.70;;
4323;SDS011;2175;51.018;6.994;2023-04-12T03:56:28;7.10;;;2.63;;
4323;SDS011;2175;51.018;6.994;2023-04-12T03:58:54;6.43;;;3.03;;
4323;SDS011;2175;51.018;6.994;2023-04-12T04:01:20;7.60;;;2.60;;
4323;SDS011;2175;51.018;6.994;2023-04-12T04:03:47;12.80;;;2.97;;
4323;SDS011;2175;51.018;6.994;2023-04-12T04:06:13;10.30;;;2.60;;
4323;SDS011;2175;51.018;6.994;2023-04-12T04:08:38;6.77;;;2.60;;
4323;SDS011;2175;51.018;6.994;2023-04-12T04:11:06;7.43;;;3.03;;
4323;SDS011;2175;51.018;6.994;2023-04-12T04:13:32;10.70;;;2.80;;
4323;SDS011;2175;51.018;6.994;2023-04-12T04:15:58;7.90;;;3.43;;
4323;SDS011;2175;51.018;6.994;2023-04-12T04:18:28;11.43;;;3.00;;
4323;SDS011;2175;51.018;6.994;2023-04-12T04:20:54;7.17;;;2.87;;
4323;SDS011;2175;51.018;6.994;2023-04-12T04:23:20;7.83;;;2.80;;
4323;SDS011;2175;51.018;6.994;2023-04-12T04:25:47;13.53;;;4.07;;
4323;SDS011;2175;51.018;6.994;2023-04-12T04:28:13;10.27;;;3.20;;
4323;SDS011;2175;51.018;6.994;2023-04-12T04:30:42;10.03;;;3.63;;
4323;SDS011;2175;51.018;6.994;2023-04-12T04:33:10;10.30;;;3.30;;
4323;SDS011;2175;51.018;6.994;2023-04-12T04:35:40;10.40;;;3.43;;
4323;SDS011;2175;51.018;6.994;2023-04-12T04:38:06;13.57;;;3.10;;
4323;SDS011;2175;51.018;6.994;2023-04-12T04:40:32;8.07;;;3.73;;
4323;SDS011;2175;51.018;6.994;2023-04-12T04:43:00;12.13;;;3.57;;
4323;SDS011;2175;51.018;6.994;2023-04-12T04:45:26;8.90;;;3.30;;
4323;SDS011;2175;51.018;6.994;2023-04-12T04:47:52;13.63;;;3.60;;
4323;SDS011;2175;51.018;6.994;2023-04-12T04:50:18;11.57;;;3.20;;
4323;SDS011;2175;51.018;6.994;2023-04-12T04:52:45;8.57;;;3.10;;
4323;SDS011;2175;51.018;6.994;2023-04-12T04:55:12;9.70;;;3.37;;
4323;SDS011;2175;51.018;6.994;2023-04-12T04:57:40;10.53;;;3.20;;
4323;SDS011;2175;51.018;6.994;2023-04-12T05:00:06;5.60;;;2.90;;
4323;SDS011;2175;51.018;6.994;2023-04-12T05:02:35;9.37;;;3.53;;
4323;SDS011;2175;51.018;6.994;2023-04-12T05:05:04;10.33;;;3.40;;
4323;SDS011;2175;51.018;6.994;2023-04-12T05:07:30;5.50;;;3.13;;
4323;SDS011;2175;51.018;6.994;2023-04-12T05:09:56;11.07;;;3.17;;
4323;SDS011;2175;51.018;6.994;2023-04-12T05:12:22;5.03;;;2.73;;
4323;SDS011;2175;51.018;6.994;2023-04-12T05:14:47;10.60;;;3.27;;
4323;SDS011;2175;51.018;6.994;2023-04-12T05:17:13;9.97;;;3.67;;
4323;SDS011;2175;51.018;6.994;2023-04-12T05:19:39;9.53;;;3.10;;
4323;SDS011;2175;51.018;6.994;2023-04-12T05:22:05;7.07;;;3.53;;
4323;SDS011;2175;51.018;6.994;2023-04-12T05:24:31;8.77;;;3.77;;
4323;SDS011;2175;51.018;6.994;2023-04-12T05:26:56;7.17;;;3.30;;
4323;SDS011;2175;51.018;6.994;2023-04-12T05:29:22;7.00;;;3.30;;
4323;SDS011;2175;51.018;6.994;2023-04-12T05:31:48;6.53;;;3.03;;
4323;SDS011;2175;51.018;6.994;2023-04-12T05:34:14;8.57;;;3.37;;
4323;SDS011;2175;51.018;6.994;2023-04-12T05:36:39;4.87;;;2.70;;
4323;SDS011;2175;51.018;6.994;2023-04-12T05:39:05;7.97;;;4.00;;
4323;SDS011;2175;51.018;6.994;2023-04-12T05:41:30;8.20;;;3.20;;
4323;SDS011;2175;51.018;6.994;2023-04-12T05:43:56;12.17;;;3.00;;
4323;SDS011;2175;51.018;6.994;2023-04-12T05:46:21;7.60;;;3.33;;
4323;SDS011;2175;51.018;6.994;2023-04-12T05:48:47;8.80;;;3.43;;
4323;SDS011;2175;51.018;6.994;2023-04-12T05:51:12;8.80;;;3.17;;
4323;SDS011;2175;51.018;6.994;2023-04-12T05:53:38;6.33;;;3.17;;
4323;SDS011;2175;51.018;6.994;2023-04-12T05:56:04;7.30;;;3.40;;
4323;SDS011;2175;51.018;6.994;2023-04-12T05:58:30;5.70;;;3.20;;
4323;SDS011;2175;51.018;6.994;2023-04-12T06:00:55;4.80;;;3.00;;
4323;SDS011;2175;51.018;6.994;2023-04-12T06:03:21;6.57;;;2.83;;
4323;SDS011;2175;51.018;6.994;2023-04-12T06:05:47;6.60;;;3.00;;
4323;SDS011;2175;51.018;6.994;2023-04-12T06:08:13;9.67;;;2.70;;
4323;SDS011;2175;51.018;6.994;2023-04-12T06:10:39;8.37;;;3.40;;
4323;SDS011;2175;51.018;6.994;2023-04-12T06:13:06;5.00;;;2.70;;
4323;SDS011;2175;51.018;6.994;2023-04-12T06:15:32;8.23;;;3.20;;
4323;SDS011;2175;51.018;6.994;2023-04-12T06:17:57;7.20;;;2.40;;
4323;SDS011;2175;51.018;6.994;2023-04-12T06:20:24;5.80;;;2.97;;
4323;SDS011;2175;51.018;6.994;2023-04-12T06:22:50;3.67;;;2.53;;
4323;SDS011;2175;51.018;6.994;2023-04-12T06:25:15;6.10;;;2.60;;
4323;SDS011;2175;51.018;6.994;2023-04-12T06:27:41;5.53;;;3.00;;
4323;SDS011;2175;51.018;6.994;2023-04-12T06:30:07;5.30;;;2.73;;
4323;SDS011;2175;51.018;6.994;2023-04-12T06:32:33;6.17;;;2.50;;
4323;SDS011;2175;51.018;6.994;2023-04-12T06:34:58;6.03;;;2.53;;
4323;SDS011;2175;51.018;6.994;2023-04-12T06:37:24;4.80;;;2.73;;
4323;SDS011;2175;51.018;6.994;2023-04-12T06:39:50;10.33;;;2.67;;
4323;SDS011;2175;51.018;6.994;2023-04-12T06:42:16;10.23;;;2.80;;
4323;SDS011;2175;51.018;6.994;2023-04-12T06:44:42;7.10;;;3.43;;
4323;SDS011;2175;51.018;6.994;2023-04-12T06:47:07;5.57;;;3.00;;
4323;SDS011;2175;51.018;6.994;2023-04-12T06:49:33;8.60;;;2.47;;
4323;SDS011;2175;51.018;6.994;2023-04-12T06:51:59;5.97;;;3.00;;
4323;SDS011;2175;51.018;6.994;2023-04-12T06:54:24;8.13;;;3.13;;
4323;SDS011;2175;51.018;6.994;2023-04-12T06:56:50;5.33;;;2.43;;
4323;SDS011;2175;51.018;6.994;2023-04-12T06:59:15;6.70;;;2.67;;
4323;SDS011;2175;51.018;6.994;2023-04-12T07:01:41;3.17;;;2.13;;
4323;SDS011;2175;51.018;6.994;2023-04-12T07:04:07;4.47;;;2.50;;
4323;SDS011;2175;51.018;6.994;2023-04-12T07:06:32;6.10;;;2.20;;
4323;SDS011;2175;51.018;6.994;2023-04-12T07:08:58;3.93;;;2.43;;
4323;SDS011;2175;51.018;6.994;2023-04-12T07:11:24;3.33;;;1.90;;
4323;SDS011;2175;51.018;6.994;2023-04-12T07:13:50;6.73;;;2.70;;
4323;SDS011;2175;51.018;6.994;2023-04-12T07:16:16;6.67;;;2.33;;
4323;SDS011;2175;51.018;6.994;2023-04-12T07:18:42;6.77;;;2.63;;
4323;SDS011;2175;51.018;6.994;2023-04-12T07:21:08;3.73;;;2.37;;
4323;SDS011;2175;51.018;6.994;2023-04-12T07:23:33;3.53;;;2.17;;
4323;SDS011;2175;51.018;6.994;2023-04-12T07:25:59;4.77;;;2.30;;
4323;SDS011;2175;51.018;6.994;2023-04-12T07:28:26;4.83;;;2.23;;
4323;SDS011;2175;51.018;6.994;2023-04-12T07:30:51;6.87;;;2.63;;
4323;SDS011;2175;51.018;6.994;2023-04-12T07:33:17;4.67;;;2.27;;
4323;SDS011;2175;51.018;6.994;2023-04-12T07:35:43;4.80;;;2.40;;
4323;SDS011;2175;51.018;6.994;2023-04-12T07:38:08;4.70;;;2.07;;
4323;SDS011;2175;51.018;6.994;2023-04-12T07:40:34;2.67;;;1.90;;
4323;SDS011;2175;51.018;6.994;2023-04-12T07:43:00;3.60;;;2.20;;
4323;SDS011;2175;51.018;6.994;2023-04-12T07:45:25;7.03;;;2.50;;
4323;SDS011;2175;51.018;6.994;2023-04-12T07:47:51;5.00;;;2.60;;
4323;SDS011;2175;51.018;6.994;2023-04-12T07:50:17;6.70;;;2.63;;
4323;SDS011;2175;51.018;6.994;2023-04-12T07:52:42;12.17;;;2.67;;
4323;SDS011;2175;51.018;6.994;2023-04-12T07:57:36;3.87;;;2.10;;
4323;SDS011;2175;51.018;6.994;2023-04-12T08:00:02;4.90;;;2.00;;
4323;SDS011;2175;51.018;6.994;2023-04-12T08:02:29;5.47;;;2.83;;
4323;SDS011;2175;51.018;6.994;2023-04-12T08:04:55;6.90;;;2.57;;
4323;SDS011;2175;51.018;6.994;2023-04-12T08:07:21;5.97;;;2.47;;
4323;SDS011;2175;51.018;6.994;2023-04-12T08:09:47;3.50;;;1.97;;
4323;SDS011;2175;51.018;6.994;2023-04-12T08:12:13;3.80;;;1.93;;
4323;SDS011;2175;51.018;6.994;2023-04-12T08:14:39;3.17;;;1.80;;
4323;SDS011;2175;51.018;6.994;2023-04-12T08:17:05;5.13;;;1.97;;
4323;SDS011;2175;51.018;6.994;2023-04-12T08:19:31;5.00;;;1.80;;
4323;SDS011;2175;51.018;6.994;2023-04-12T08:21:56;6.50;;;1.87;;
4323;SDS011;2175;51.018;6.994;2023-04-12T08:24:22;4.47;;;2.03;;
4323;SDS011;2175;51.018;6.994;2023-04-12T08:26:49;5.47;;;2.07;;
4323;SDS011;2175;51.018;6.994;2023-04-12T08:29:15;5.70;;;2.30;;
4323;SDS011;2175;51.018;6.994;2023-04-12T08:31:41;4.77;;;1.70;;
4323;SDS011;2175;51.018;6.994;2023-04-12T08:34:06;4.60;;;1.73;;
4323;SDS011;2175;51.018;6.994;2023-04-12T08:36:32;6.27;;;2.17;;
4323;SDS011;2175;51.018;6.994;2023-04-12T08:38:58;6.20;;;1.97;;
4323;SDS011;2175;51.018;6.994;2023-04-12T08:41:24;2.43;;;1.80;;
4323;SDS011;2175;51.018;6.994;2023-04-12T08:43:50;8.37;;;2.13;;
4323;SDS011;2175;51.018;6.994;2023-04-12T08:46:16;2.80;;;1.80;;
4323;SDS011;2175;51.018;6.994;2023-04-12T08:48:49;5.20;;;2.03;;
4323;SDS011;2175;51.018;6.994;2023-04-12T08:51:19;3.20;;;1.97;;
4323;SDS011;2175;51.018;6.994;2023-04-12T08:53:45;5.10;;;1.90;;
4323;SDS011;2175;51.018;6.994;2023-04-12T08:56:12;4.37;;;2.13;;
4323;SDS011;2175;51.018;6.994;2023-04-12T08:58:38;3.47;;;1.77;;
4323;SDS011;2175;51.018;6.994;2023-04-12T09:01:12;3.70;;;2.20;;
4323;SDS011;2175;51.018;6.994;2023-04-12T09:03:42;2.83;;;1.80;;
4323;SDS011;2175;51.018;6.994;2023-04-12T09:06:08;4.00;;;1.80;;
4323;SDS011;2175;51.018;6.994;2023-04-12T09:08:35;3.47;;;2.10;;
4323;SDS011;2175;51.018;6.994;2023-04-12T09:11:01;6.57;;;2.10;;
4323;SDS011;2175;51.018;6.994;2023-04-12T09:13:44;4.03;;;1.77;;
4323;SDS011;2175;51.018;6.994;2023-04-12T09:16:10;2.97;;;1.80;;
4323;SDS011;2175;51.018;6.994;2023-04-12T09:18:46;3.03;;;1.90;;
4323;SDS011;2175;51.018;6.994;2023-04-12T09:21:13;4.37;;;1.70;;
4323;SDS011;2175;51.018;6.994;2023-04-12T09:23:39;6.50;;;1.87;;
4323;SDS011;2175;51.018;6.994;2023-04-12T09:26:05;2.50;;;1.90;;
4323;SDS011;2175;51.018;6.994;2023-04-12T09:28:32;3.40;;;1.80;;
4323;SDS011;2175;51.018;6.994;2023-04-12T09:30:58;2.93;;;1.70;;
4323;SDS011;2175;51.018;6.994;2023-04-12T09:33:34;2.70;;;1.70;;
4323;SDS011;2175;51.018;6.994;2023-04-12T09:36:03;9.60;;;2.00;;
4323;SDS011;2175;51.018;6.994;2023-04-12T09:38:30;2.87;;;1.77;;
4323;SDS011;2175;51.018;6.994;2023-04-12T09:41:19;3.37;;;1.70;;
4323;SDS011;2175;51.018;6.994;2023-04-12T09:43:44;7.80;;;1.93;;
4323;SDS011;2175;51.018;6.994;2023-04-12T09:46:13;1.80;;;1.60;;
4323;SDS011;2175;51.018;6.994;2023-04-12T09:48:40;2.40;;;1.80;;
4323;SDS011;2175;51.018;6.994;2023-04-12T09:51:12;2.90;;;1.70;;
4323;SDS011;2175;51.018;6.994;2023-04-12T09:53:38;4.30;;;1.70;;
4323;SDS011;2175;51.018;6.994;2023-04-12T09:56:10;5.43;;;1.90;;
4323;SDS011;2175;51.018;6.994;2023-04-12T09:58:37;3.33;;;1.63;;
4323;SDS011;2175;51.018;6.994;2023-04-12T10:01:04;3.23;;;1.70;;
4323;SDS011;2175;51.018;6.994;2023-04-12T10:03:33;2.93;;;1.80;;
4323;SDS011;2175;51.018;6.994;2023-04-12T10:05:59;3.20;;;1.50;;
4323;SDS011;2175;51.018;6.994;2023-04-12T10:08:27;2.60;;;1.70;;
4323;SDS011;2175;51.018;6.994;2023-04-12T10:10:54;3.90;;;1.80;;
4323;SDS011;2175;51.018;6.994;2023-04-12T10:13:21;3.57;;;2.07;;
4323;SDS011;2175;51.018;6.994;2023-04-12T10:15:48;2.73;;;1.87;;
4323;SDS011;2175;51.018;6.994;2023-04-12T10:18:16;6.60;;;2.07;;
4323;SDS011;2175;51.018;6.994;2023-04-12T10:20:44;5.63;;;2.27;;
4323;SDS011;2175;51.018;6.994;2023-04-12T10:23:10;4.17;;;2.20;;
4323;SDS011;2175;51.018;6.994;2023-04-12T10:25:37;4.73;;;2.40;;
4323;SDS011;2175;51.018;6.994;2023-04-12T10:28:39;5.73;;;2.07;;
4323;SDS011;2175;51.018;6.994;2023-04-12T10:30:57;2.40;;;1.60;;
4323;SDS011;2175;51.018;6.994;2023-04-12T10:33:24;5.40;;;2.20;;
4323;SDS011;2175;51.018;6.994;2023-04-12T10:35:58;4.60;;;2.40;;
4323;SDS011;2175;51.018;6.994;2023-04-12T10:38:27;2.87;;;1.73;;
4323;SDS011;2175;51.018;6.994;2023-04-12T10:41:13;2.70;;;2.10;;
4323;SDS011;2175;51.018;6.994;2023-04-12T10:43:40;2.53;;;1.80;;
4323;SDS011;2175;51.018;6.994;2023-04-12T10:46:06;3.90;;;2.07;;
4323;SDS011;2175;51.018;6.994;2023-04-12T10:48:36;4.27;;;2.10;;
4323;SDS011;2175;51.018;6.994;2023-04-12T10:51:19;5.37;;;2.03;;
4323;SDS011;2175;51.018;6.994;2023-04-12T10:53:53;4.27;;;1.83;;
4323;SDS011;2175;51.018;6.994;2023-04-12T10:58:57;6.40;;;2.40;;
4323;SDS011;2175;51.018;6.994;2023-04-12T11:01:24;4.10;;;2.10;;
4323;SDS011;2175;51.018;6.994;2023-04-12T11:06:48;6.60;;;2.47;;
4323;SDS011;2175;51.018;6.994;2023-04-12T11:12:12;8.23;;;3.77;;
4323;SDS011;2175;51.018;6.994;2023-04-12T11:14:48;7.90;;;5.40;;
4323;SDS011;2175;51.018;6.994;2023-04-12T11:19:41;3.60;;;2.80;;
4323;SDS011;2175;51.018;6.994;2023-04-12T11:22:09;3.87;;;2.60;;
4323;SDS011;2175;51.018;6.994;2023-04-12T11:24:40;4.13;;;2.43;;
4323;SDS011;2175;51.018;6.994;2023-04-12T11:27:08;3.13;;;2.50;;
4323;SDS011;2175;51.018;6.994;2023-04-12T11:29:35;6.60;;;4.40;;
4323;SDS011;2175;51.018;6.994;2023-04-12T11:32:04;7.53;;;5.10;;
4323;SDS011;2175;51.018;6.994;2023-04-12T11:34:33;7.00;;;4.97;;
4323;SDS011;2175;51.018;6.994;2023-04-12T11:37:02;7.47;;;4.50;;
4323;SDS011;2175;51.018;6.994;2023-04-12T11:39:32;6.73;;;3.43;;
4323;SDS011;2175;51.018;6.994;2023-04-12T11:41:58;8.50;;;3.50;;
4323;SDS011;2175;51.018;6.994;2023-04-12T11:44:25;7.17;;;4.07;;
4323;SDS011;2175;51.018;6.994;2023-04-12T11:46:51;6.50;;;3.40;;
4323;SDS011;2175;51.018;6.994;2023-04-12T11:49:19;9.07;;;3.57;;
4323;SDS011;2175;51.018;6.994;2023-04-12T11:51:46;5.67;;;3.70;;
4323;SDS011;2175;51.018;6.994;2023-04-12T11:54:12;7.17;;;3.80;;
4323;SDS011;2175;51.018;6.994;2023-04-12T11:56:39;7.00;;;4.00;;
4323;SDS011;2175;51.018;6.994;2023-04-12T11:59:06;10.30;;;3.80;;
4323;SDS011;2175;51.018;6.994;2023-04-12T12:01:35;8.20;;;3.77;;
4323;SDS011;2175;51.018;6.994;2023-04-12T12:04:02;10.30;;;4.23;;
4323;SDS011;2175;51.018;6.994;2023-04-12T12:06:28;4.20;;;3.00;;
4323;SDS011;2175;51.018;6.994;2023-04-12T12:08:55;10.30;;;4.67;;
4323;SDS011;2175;51.018;6.994;2023-04-12T12:11:22;10.10;;;2.73;;
4323;SDS011;2175;51.018;6.994;2023-04-12T12:13:49;8.40;;;2.50;;
4323;SDS011;2175;51.018;6.994;2023-04-12T12:16:16;9.03;;;3.33;;
4323;SDS011;2175;51.018;6.994;2023-04-12T12:18:47;8.00;;;3.07;;
4323;SDS011;2175;51.018;6.994;2023-04-12T12:21:14;4.97;;;2.50;;
4323;SDS011;2175;51.018;6.994;2023-04-12T12:23:43;10.10;;;2.70;;
4323;SDS011;2175;51.018;6.994;2023-04-12T12:26:18;6.13;;;2.63;;
4323;SDS011;2175;51.018;6.994;2023-04-12T12:28:53;6.60;;;2.70;;
4323;SDS011;2175;51.018;6.994;2023-04-12T12:31:23;7.17;;;2.80;;
4323;SDS011;2175;51.018;6.994;2023-04-12T12:33:54;6.53;;;2.47;;
4323;SDS011;2175;51.018;6.994;2023-04-12T12:36:27;4.67;;;2.07;;
4323;SDS011;2175;51.018;6.994;2023-04-12T12:39:01;4.80;;;2.10;;
4323;SDS011;2175;51.018;6.994;2023-04-12T12:41:36;6.57;;;2.30;;
4323;SDS011;2175;51.018;6.994;2023-04-12T12:44:03;6.27;;;2.27;;
4323;SDS011;2175;51.018;6.994;2023-04-12T12:46:29;6.17;;;2.30;;
4323;SDS011;2175;51.018;6.994;2023-04-12T12:48:55;6.80;;;2.13;;
4323;SDS011;2175;51.018;6.994;2023-04-12T12:51:21;7.83;;;2.30;;
4323;SDS011;2175;51.018;6.994;2023-04-12T12:53:47;6.93;;;2.10;;
4323;SDS011;2175;51.018;6.994;2023-04-12T12:56:13;7.77;;;2.80;;
4323;SDS011;2175;51.018;6.994;2023-04-12T12:58:40;11.70;;;2.77;;
4323;SDS011;2175;51.018;6.994;2023-04-12T13:01:06;9.17;;;2.40;;
4323;SDS011;2175;51.018;6.994;2023-04-12T13:03:33;6.13;;;2.77;;
4323;SDS011;2175;51.018;6.994;2023-04-12T13:05:58;10.90;;;3.33;;
4323;SDS011;2175;51.018;6.994;2023-04-12T13:08:25;13.90;;;4.30;;
4323;SDS011;2175;51.018;6.994;2023-04-12T13:10:51;7.17;;;3.37;;
4323;SDS011;2175;51.018;6.994;2023-04-12T13:13:17;10.63;;;2.80;;
4323;SDS011;2175;51.018;6.994;2023-04-12T13:15:43;11.00;;;3.43;;
4323;SDS011;2175;51.018;6.994;2023-04-12T13:18:13;12.37;;;3.80;;
4323;SDS011;2175;51.018;6.994;2023-04-12T13:20:41;15.00;;;3.60;;
4323;SDS011;2175;51.018;6.994;2023-04-12T13:23:08;10.67;;;4.00;;
4323;SDS011;2175;51.018;6.994;2023-04-12T13:25:34;10.53;;;2.80;;
4323;SDS011;2175;51.018;6.994;2023-04-12T13:28:02;11.40;;;3.10;;
4323;SDS011;2175;51.018;6.994;2023-04-12T13:30:28;11.60;;;2.63;;
4323;SDS011;2175;51.018;6.994;2023-04-12T13:32:54;9.43;;;3.00;;
4323;SDS011;2175;51.018;6.994;2023-04-12T13:35:19;9.30;;;2.97;;
4323;SDS011;2175;51.018;6.994;2023-04-12T13:37:45;10.97;;;3.00;;
4323;SDS011;2175;51.018;6.994;2023-04-12T13:40:12;13.77;;;3.60;;
4323;SDS011;2175;51.018;6.994;2023-04-12T13:42:38;12.93;;;3.00;;
4323;SDS011;2175;51.018;6.994;2023-04-12T13:45:04;13.17;;;2.90;;
4323;SDS011;2175;51.018;6.994;2023-04-12T13:47:31;12.77;;;3.23;;
4323;SDS011;2175;51.018;6.994;2023-04-12T13:49:57;11.57;;;3.13;;
4323;SDS011;2175;51.018;6.994;2023-04-12T13:52:25;14.97;;;3.40;;
4323;SDS011;2175;51.018;6.994;2023-04-12T13:54:51;15.27;;;3.10;;
4323;SDS011;2175;51.018;6.994;2023-04-12T13:57:16;12.43;;;2.87;;
4323;SDS011;2175;51.018;6.994;2023-04-12T13:59:42;13.50;;;2.83;;
4323;SDS011;2175;51.018;6.994;2023-04-12T14:02:07;11.53;;;2.67;;
4323;SDS011;2175;51.018;6.994;2023-04-12T14:04:33;12.17;;;2.87;;
4323;SDS011;2175;51.018;6.994;2023-04-12T14:06:59;7.90;;;2.57;;
4323;SDS011;2175;51.018;6.994;2023-04-12T14:09:28;12.73;;;2.87;;
4323;SDS011;2175;51.018;6.994;2023-04-12T14:11:56;9.70;;;2.97;;
4323;SDS011;2175;51.018;6.994;2023-04-12T14:14:25;10.40;;;2.97;;
4323;SDS011;2175;51.018;6.994;2023-04-12T14:16:52;10.23;;;3.73;;
4323;SDS011;2175;51.018;6.994;2023-04-12T14:19:21;15.07;;;4.13;;
4323;SDS011;2175;51.018;6.994;2023-04-12T14:21:47;11.43;;;2.80;;
4323;SDS011;2175;51.018;6.994;2023-04-12T14:24:14;11.57;;;2.97;;
4323;SDS011;2175;51.018;6.994;2023-04-12T14:26:40;14.00;;;3.97;;
4323;SDS011;2175;51.018;6.994;2023-04-12T14:29:06;12.17;;;3.10;;
4323;SDS011;2175;51.018;6.994;2023-04-12T14:31:31;16.13;;;4.60;;
4323;SDS011;2175;51.018;6.994;2023-04-12T14:33:58;8.63;;;3.53;;
4323;SDS011;2175;51.018;6.994;2023-04-12T14:36:23;11.33;;;3.20;;
4323;SDS011;2175;51.018;6.994;2023-04-12T14:38:51;11.90;;;3.37;;
4323;SDS011;2175;51.018;6.994;2023-04-12T14:41:16;9.17;;;2.70;;
4323;SDS011;2175;51.018;6.994;2023-04-12T14:43:42;9.20;;;3.33;;
4323;SDS011;2175;51.018;6.994;2023-04-12T14:46:08;5.60;;;2.77;;
4323;SDS011;2175;51.018;6.994;2023-04-12T14:48:34;8.07;;;2.90;;
4323;SDS011;2175;51.018;6.994;2023-04-12T14:51:00;6.13;;;2.53;;
4323;SDS011;2175;51.018;6.994;2023-04-12T14:53:26;9.23;;;3.17;;
4323;SDS011;2175;51.018;6.994;2023-04-12T14:55:52;12.67;;;3.23;;
4323;SDS011;2175;51.018;6.994;2023-04-12T14:58:17;8.10;;;3.33;;
4323;SDS011;2175;51.018;6.994;2023-04-12T15:00:43;10.50;;;2.73;;
4323;SDS011;2175;51.018;6.994;2023-04-12T15:03:08;8.23;;;3.37;;
4323;SDS011;2175;51.018;6.994;2023-04-12T15:05:34;12.70;;;3.57;;
4323;SDS011;2175;51.018;6.994;2023-04-12T15:08:00;9.43;;;3.10;;
4323;SDS011;2175;51.018;6.994;2023-04-12T15:10:26;11.57;;;3.23;;
4323;SDS011;2175;51.018;6.994;2023-04-12T15:12:52;8.23;;;3.50;;
4323;SDS011;2175;51.018;6.994;2023-04-12T15:15:18;12.53;;;3.60;;
4323;SDS011;2175;51.018;6.994;2023-04-12T15:17:44;16.03;;;3.20;;
4323;SDS011;2175;51.018;6.994;2023-04-12T15:20:10;8.57;;;3.20;;
4323;SDS011;2175;51.018;6.994;2023-04-12T15:22:37;8.37;;;2.80;;
4323;SDS011;2175;51.018;6.994;2023-04-12T15:25:04;11.23;;;2.87;;
4323;SDS011;2175;51.018;6.994;2023-04-12T15:27:30;17.87;;;3.43;;
4323;SDS011;2175;51.018;6.994;2023-04-12T15:29:57;10.77;;;3.70;;
4323;SDS011;2175;51.018;6.994;2023-04-12T15:32:23;8.57;;;2.53;;
4323;SDS011;2175;51.018;6.994;2023-04-12T15:34:50;19.77;;;2.40;;
4323;SDS011;2175;51.018;6.994;2023-04-12T15:37:17;9.80;;;2.50;;